createdAt,value
2022-08-11T00:02:15.336Z,6.30
2022-08-11T00:04:49.281Z,6.05
2022-08-11T00:07:23.333Z,2.78
2022-08-11T00:09:57.753Z,6.40
2022-08-11T00:12:31.260Z,3.20
2022-08-11T00:15:04.494Z,4.70
2022-08-11T00:17:39.776Z,3.17
2022-08-11T00:20:17.504Z,3.90
2022-08-11T00:22:51.850Z,5.38
2022-08-11T00:25:25.590Z,6.13
2022-08-11T00:27:58.750Z,3.65
2022-08-11T00:30:40.533Z,5.75
2022-08-11T00:33:15.171Z,5.82
2022-08-11T00:35:54.595Z,4.82
2022-08-11T00:38:35.360Z,6.50
2022-08-11T00:41:19.823Z,4.57
2022-08-11T00:44:13.808Z,5.55
2022-08-11T00:46:58.746Z,5.05
2022-08-11T00:49:44.165Z,6.20
2022-08-11T00:52:30.758Z,3.03
2022-08-11T00:55:37.644Z,4.40
2022-08-11T00:58:51.030Z,6.05
2022-08-11T01:01:36.299Z,7.97
2022-08-11T01:04:55.546Z,6.90
2022-08-11T01:08:03.626Z,10.02
2022-08-11T01:10:53.936Z,5.37
2022-08-11T01:14:05.432Z,5.75
2022-08-11T01:17:35.830Z,4.65
2022-08-11T01:20:47.246Z,3.50
2022-08-11T01:24:20.174Z,3.40
2022-08-11T01:27:25.778Z,2.97
2022-08-11T01:30:44.469Z,5.32
2022-08-11T01:36:34.090Z,4.57
2022-08-11T01:39:33.843Z,4.97
2022-08-11T01:42:56.920Z,5.50
2022-08-11T01:45:37.627Z,5.85
2022-08-11T01:48:20.651Z,6.15
2022-08-11T01:51:03.879Z,3.90
2022-08-11T01:53:53.231Z,7.28
2022-08-11T01:56:36.783Z,9.60
2022-08-11T01:59:17.136Z,6.55
2022-08-11T02:02:05.132Z,8.23
2022-08-11T02:04:44.127Z,6.45
2022-08-11T02:07:31.375Z,4.65
2022-08-11T02:10:39.393Z,6.05
2022-08-11T02:13:19.357Z,5.07
2022-08-11T02:16:14.779Z,3.30
2022-08-11T02:19:10.035Z,6.60
2022-08-11T02:22:09.211Z,4.38
2022-08-11T02:24:47.596Z,5.53
2022-08-11T02:27:26.337Z,7.55
2022-08-11T02:33:00.274Z,5.00
2022-08-11T02:35:45.806Z,5.05
2022-08-11T02:38:25.958Z,6.57
2022-08-11T02:41:29.419Z,5.18
2022-08-11T02:44:18.651Z,5.78
2022-08-11T02:47:03.745Z,5.93
2022-08-11T02:50:06.304Z,6.68
2022-08-11T02:52:48.612Z,4.57
2022-08-11T02:55:56.403Z,8.65
2022-08-11T02:58:27.855Z,11.63
2022-08-11T03:01:14.039Z,7.53
2022-08-11T03:03:54.332Z,4.80
2022-08-11T03:06:37.007Z,8.52
2022-08-11T03:09:18.262Z,5.63
2022-08-11T03:12:18.847Z,7.53
2022-08-11T03:15:17.374Z,5.95
2022-08-11T03:18:07.106Z,5.57
2022-08-11T03:20:45.809Z,8.60
2022-08-11T03:23:28.234Z,4.78
2022-08-11T03:26:08.592Z,7.82
2022-08-11T03:28:48.193Z,5.90
2022-08-11T03:31:26.170Z,9.48
2022-08-11T03:34:07.569Z,5.50
2022-08-11T03:37:16.746Z,6.10
2022-08-11T03:40:01.021Z,9.93
2022-08-11T03:42:44.537Z,5.53
2022-08-11T03:45:27.160Z,5.05
2022-08-11T03:48:10.145Z,8.48
2022-08-11T03:51:06.006Z,6.05
2022-08-11T03:54:16.043Z,6.57
2022-08-11T03:57:34.906Z,4.53
2022-08-11T04:00:30.660Z,7.05
2022-08-11T04:03:40.047Z,7.13
2022-08-11T04:06:51.135Z,7.90
2022-08-11T04:09:56.522Z,8.35
2022-08-11T04:12:48.037Z,6.97
2022-08-11T04:16:00.891Z,7.45
2022-08-11T04:19:24.762Z,3.92
2022-08-11T04:22:30.422Z,4.70
2022-08-11T04:25:58.146Z,5.05
2022-08-11T04:28:55.730Z,5.78
2022-08-11T04:31:51.930Z,6.18
2022-08-11T04:34:42.496Z,6.68
2022-08-11T04:37:54.184Z,6.18
2022-08-11T04:40:56.013Z,6.90
2022-08-11T04:44:08.214Z,5.30
2022-08-11T04:47:09.595Z,7.43
2022-08-11T04:50:20.123Z,12.85
2022-08-11T04:53:44.568Z,7.00
2022-08-11T04:56:39.419Z,6.32
2022-08-11T05:00:01.681Z,6.22
2022-08-11T05:03:14.476Z,8.27
2022-08-11T05:06:02.671Z,7.10
2022-08-11T05:09:19.511Z,7.45
2022-08-11T05:12:21.104Z,6.78
2022-08-11T05:15:13.887Z,5.75
2022-08-11T05:18:13.987Z,6.47
2022-08-11T05:21:10.041Z,8.57
2022-08-11T05:24:07.455Z,6.03
2022-08-11T05:27:13.530Z,7.90
2022-08-11T05:30:07.636Z,24.13
2022-08-11T05:33:02.330Z,18.90
2022-08-11T05:36:02.048Z,12.75
2022-08-11T05:38:55.849Z,6.32
2022-08-11T05:41:49.712Z,7.85
2022-08-11T05:44:42.493Z,15.35
2022-08-11T05:47:41.725Z,75.57
2022-08-11T05:50:37.246Z,141.35
2022-08-11T05:53:30.596Z,32.08
2022-08-11T05:56:19.448Z,36.72
2022-08-11T05:58:53.875Z,126.80
2022-08-11T06:01:32.023Z,82.93
2022-08-11T06:04:17.664Z,47.73
2022-08-11T06:06:57.543Z,26.83
2022-08-11T06:09:34.093Z,11.88
2022-08-11T06:12:09.668Z,7.63
2022-08-11T06:14:44.348Z,14.85
2022-08-11T06:17:24.202Z,9.48
2022-08-11T06:20:06.098Z,37.00
2022-08-11T06:22:42.870Z,21.73
2022-08-11T06:25:16.981Z,6.07
2022-08-11T06:27:56.269Z,6.82
2022-08-11T06:30:40.839Z,9.57
2022-08-11T06:33:19.115Z,4.90
2022-08-11T06:36:01.201Z,10.43
2022-08-11T06:38:53.748Z,8.18
2022-08-11T06:41:32.630Z,5.50
2022-08-11T06:44:19.233Z,11.80
2022-08-11T06:46:56.029Z,7.55
2022-08-11T06:49:56.047Z,10.15
2022-08-11T06:52:35.026Z,4.40
2022-08-11T06:55:55.804Z,9.50
2022-08-11T06:58:32.085Z,9.63
2022-08-11T07:01:10.799Z,5.97
2022-08-11T07:03:47.531Z,8.25
2022-08-11T07:06:41.593Z,6.07
2022-08-11T07:10:04.498Z,9.82
2022-08-11T07:12:59.782Z,8.82
2022-08-11T07:16:12.910Z,4.05
2022-08-11T07:18:59.760Z,6.68
2022-08-11T07:22:00.965Z,3.10
2022-08-11T07:24:59.549Z,5.32
2022-08-11T07:28:00.677Z,4.28
2022-08-11T07:30:38.574Z,6.63
2022-08-11T07:33:19.017Z,11.50
2022-08-11T07:36:12.677Z,7.95
2022-08-11T07:38:51.425Z,3.50
2022-08-11T07:41:28.831Z,7.50
2022-08-11T07:44:09.822Z,3.42
2022-08-11T07:47:02.154Z,6.78
2022-08-11T07:49:55.482Z,5.85
2022-08-11T07:52:32.349Z,4.82
2022-08-11T07:55:13.125Z,10.60
2022-08-11T07:58:15.994Z,7.10
2022-08-11T08:01:22.454Z,6.20
2022-08-11T08:04:14.114Z,5.47
2022-08-11T08:07:04.772Z,9.18
2022-08-11T08:09:56.372Z,5.63
2022-08-11T08:12:49.050Z,9.55
2022-08-11T08:15:41.330Z,5.63
2022-08-11T08:18:26.259Z,3.90
2022-08-11T08:21:12.017Z,7.70
2022-08-11T08:23:47.709Z,12.05
2022-08-11T08:26:48.307Z,7.63
2022-08-11T08:29:45.848Z,7.80
2022-08-11T08:32:19.643Z,6.22
2022-08-11T08:34:55.570Z,8.38
2022-08-11T08:37:45.733Z,5.07
2022-08-11T08:40:20.769Z,6.25
2022-08-11T08:42:56.984Z,5.43
2022-08-11T08:45:37.692Z,5.30
2022-08-11T08:48:14.231Z,8.55
2022-08-11T08:51:11.760Z,6.10
2022-08-11T08:53:53.392Z,3.40
2022-08-11T08:56:29.408Z,6.13
2022-08-11T08:59:03.862Z,8.02
2022-08-11T09:01:44.632Z,4.68
2022-08-11T09:04:21.729Z,3.35
2022-08-11T09:06:56.698Z,4.72
2022-08-11T09:09:29.975Z,5.80
2022-08-11T09:12:05.621Z,5.00
2022-08-11T09:14:58.137Z,9.13
2022-08-11T09:17:36.582Z,5.32
2022-08-11T09:20:13.635Z,7.57
2022-08-11T09:26:19.343Z,2.55
2022-08-11T09:28:53.662Z,4.63
2022-08-11T09:31:27.043Z,3.47
2022-08-11T09:34:02.590Z,3.80
2022-08-11T09:36:53.756Z,3.65
2022-08-11T09:39:46.661Z,2.55
2022-08-11T09:42:23.770Z,5.68
2022-08-11T09:44:57.656Z,3.10
2022-08-11T09:47:31.608Z,3.40
2022-08-11T09:50:07.871Z,3.35
2022-08-11T09:52:57.102Z,4.03
2022-08-11T09:55:35.537Z,3.15
2022-08-11T09:58:42.806Z,6.38
2022-08-11T10:01:27.313Z,2.38
2022-08-11T10:04:04.948Z,3.50
2022-08-11T10:06:58.577Z,6.53
2022-08-11T10:09:39.777Z,2.60
2022-08-11T10:12:17.799Z,2.50
2022-08-11T10:15:13.202Z,5.20
2022-08-11T10:18:03.903Z,4.53
2022-08-11T10:20:39.024Z,5.05
2022-08-11T10:23:32.413Z,8.88
2022-08-11T10:26:23.999Z,1.98
2022-08-11T10:29:12.525Z,5.47
2022-08-11T10:32:13.337Z,11.15
2022-08-11T10:34:49.749Z,3.33
2022-08-11T10:38:08.464Z,5.57
2022-08-11T10:40:29.632Z,2.67
2022-08-11T10:43:13.396Z,4.35
2022-08-11T10:46:07.799Z,5.97
2022-08-11T10:48:41.339Z,5.25
2022-08-11T10:51:14.596Z,3.40
2022-08-11T10:54:07.524Z,2.75
2022-08-11T10:57:04.106Z,3.92
2022-08-11T10:59:37.407Z,5.15
2022-08-11T11:02:15.031Z,2.88
2022-08-11T11:05:01.039Z,4.30
2022-08-11T11:07:44.164Z,3.45
2022-08-11T11:10:17.744Z,5.80
2022-08-11T11:13:13.996Z,2.30
2022-08-11T11:16:06.484Z,2.22
2022-08-11T11:18:39.860Z,3.65
2022-08-11T11:21:19.769Z,2.08
2022-08-11T11:24:06.121Z,4.25
2022-08-11T11:26:50.321Z,1.85
2022-08-11T11:29:47.952Z,3.95
2022-08-11T11:32:28.611Z,4.70
2022-08-11T11:35:18.269Z,4.97
2022-08-11T11:38:04.525Z,1.77
2022-08-11T11:40:40.940Z,2.95
2022-08-11T11:43:14.069Z,3.10
2022-08-11T11:45:48.612Z,3.00
2022-08-11T11:48:21.781Z,2.95
2022-08-11T11:50:58.159Z,4.55
2022-08-11T11:53:31.940Z,2.28
2022-08-11T11:56:06.297Z,4.65
2022-08-11T11:58:59.037Z,5.50
2022-08-11T12:01:34.062Z,8.55
2022-08-11T12:04:07.886Z,2.47
2022-08-11T12:06:42.707Z,1.98
2022-08-11T12:09:18.564Z,5.75
2022-08-11T12:12:09.330Z,3.88
2022-08-11T12:14:42.673Z,3.08
2022-08-11T12:17:17.114Z,3.42
2022-08-11T12:19:50.764Z,5.13
2022-08-11T12:22:41.765Z,1.38
2022-08-11T12:25:32.910Z,1.38
2022-08-11T12:28:06.264Z,3.28
2022-08-11T12:33:24.057Z,2.08
2022-08-11T12:36:00.922Z,6.15
2022-08-11T12:38:36.060Z,4.45
2022-08-11T12:41:28.473Z,3.35
2022-08-11T12:44:36.792Z,3.83
2022-08-11T12:47:10.908Z,3.80
2022-08-11T12:50:05.691Z,2.70
2022-08-11T12:52:56.995Z,3.85
2022-08-11T12:56:03.697Z,4.82
2022-08-11T12:58:42.243Z,3.20
2022-08-11T13:01:32.824Z,3.65
2022-08-11T13:04:24.429Z,2.92
2022-08-11T13:07:03.145Z,2.88
2022-08-11T13:09:36.323Z,3.85
2022-08-11T13:12:27.263Z,3.00
2022-08-11T13:15:01.764Z,2.63
2022-08-11T13:17:42.349Z,3.38
2022-08-11T13:20:20.229Z,5.35
2022-08-11T13:22:56.607Z,1.63
2022-08-11T13:25:32.701Z,5.07
2022-08-11T13:28:07.214Z,2.03
2022-08-11T13:30:59.177Z,4.78
2022-08-11T13:33:33.572Z,1.80
2022-08-11T13:36:08.271Z,5.88
2022-08-11T13:38:49.515Z,2.03
2022-08-11T13:41:39.556Z,1.80
2022-08-11T13:44:18.185Z,4.28
2022-08-11T13:46:53.540Z,3.45
2022-08-11T13:49:28.076Z,2.35
2022-08-11T13:52:02.165Z,3.03
2022-08-11T13:54:39.375Z,4.30
2022-08-11T13:58:06.294Z,3.35
2022-08-11T14:00:27.673Z,4.00
2022-08-11T14:03:01.897Z,1.67
2022-08-11T14:05:40.296Z,3.42
2022-08-11T14:08:33.952Z,3.65
2022-08-11T14:12:23.644Z,4.28
2022-08-11T14:14:35.390Z,2.58
2022-08-11T14:17:09.875Z,2.95
2022-08-11T14:19:48.545Z,5.22
2022-08-11T14:22:22.239Z,6.25
2022-08-11T14:24:56.615Z,2.63
2022-08-11T14:28:29.785Z,2.25
2022-08-11T14:30:41.587Z,3.85
2022-08-11T14:33:16.765Z,5.95
2022-08-11T14:35:51.609Z,4.97
2022-08-11T14:38:24.692Z,3.67
2022-08-11T14:41:15.524Z,3.28
2022-08-11T14:44:13.655Z,2.75
2022-08-11T14:47:24.759Z,2.70
2022-08-11T14:50:11.668Z,3.63
2022-08-11T14:52:51.304Z,7.68
2022-08-11T14:55:46.897Z,6.18
2022-08-11T14:58:24.013Z,1.65
2022-08-11T15:00:59.959Z,2.35
2022-08-11T15:03:33.752Z,7.95
2022-08-11T15:06:07.369Z,3.65
2022-08-11T15:08:55.851Z,7.65
2022-08-11T15:11:50.176Z,4.78
2022-08-11T15:14:37.226Z,4.13
2022-08-11T15:17:13.274Z,5.18
2022-08-11T15:20:01.178Z,3.10
2022-08-11T15:22:51.303Z,3.87
2022-08-11T15:25:24.347Z,5.05
2022-08-11T15:28:17.050Z,2.58
2022-08-11T15:31:12.902Z,7.30
2022-08-11T15:34:08.484Z,2.47
2022-08-11T15:37:01.342Z,4.43
2022-08-11T15:39:59.261Z,5.50
2022-08-11T15:42:52.050Z,4.22
2022-08-11T15:45:44.660Z,2.20
2022-08-11T15:48:29.797Z,2.90
2022-08-11T15:51:10.776Z,3.58
2022-08-11T15:53:56.622Z,3.80
2022-08-11T15:56:33.413Z,2.53
2022-08-11T15:59:42.521Z,4.55
2022-08-11T16:02:39.278Z,4.00
2022-08-11T16:05:45.228Z,9.63
2022-08-11T16:08:14.254Z,10.68
2022-08-11T16:10:48.212Z,5.78
2022-08-11T16:13:43.257Z,2.95
2022-08-11T16:16:18.640Z,4.18
2022-08-11T16:18:55.815Z,4.13
2022-08-11T16:21:36.152Z,3.15
2022-08-11T16:27:04.133Z,3.58
2022-08-11T16:27:13.657Z,3.53
2022-08-11T16:29:48.862Z,4.28
2022-08-11T16:32:24.249Z,4.47
2022-08-11T16:35:17.494Z,3.80
2022-08-11T16:38:10.530Z,4.32
2022-08-11T16:40:46.235Z,4.15
2022-08-11T16:43:39.787Z,4.90
2022-08-11T16:46:40.079Z,2.70
2022-08-11T16:49:17.974Z,11.38
2022-08-11T16:51:51.075Z,7.37
2022-08-11T16:54:24.411Z,4.78
2022-08-11T16:57:20.125Z,2.28
2022-08-11T16:59:57.978Z,2.83
2022-08-11T17:02:54.069Z,2.17
2022-08-11T17:05:54.525Z,4.53
2022-08-11T17:08:57.609Z,4.13
2022-08-11T17:11:54.453Z,3.00
2022-08-11T17:14:37.740Z,2.55
2022-08-11T17:17:14.836Z,5.72
2022-08-11T17:20:38.569Z,3.35
2022-08-11T17:23:03.014Z,9.52
2022-08-11T17:25:59.223Z,4.68
2022-08-11T17:28:31.636Z,5.38
2022-08-11T17:31:24.215Z,6.05
2022-08-11T17:34:17.278Z,2.78
2022-08-11T17:36:51.322Z,2.28
2022-08-11T17:39:29.664Z,11.00
2022-08-11T17:42:20.685Z,5.53
2022-08-11T17:45:12.608Z,4.38
2022-08-11T17:48:05.821Z,1.60
2022-08-11T17:50:40.257Z,3.90
2022-08-11T17:53:33.688Z,5.90
2022-08-11T17:56:25.085Z,3.28
2022-08-11T17:59:17.068Z,3.45
2022-08-11T18:01:53.947Z,4.50
2022-08-11T18:04:30.615Z,5.22
2022-08-11T18:07:03.847Z,6.80
2022-08-11T18:09:55.148Z,4.20
2022-08-11T18:12:45.831Z,2.90
2022-08-11T18:15:37.034Z,5.78
2022-08-11T18:18:30.416Z,3.92
2022-08-11T18:21:24.555Z,2.88
2022-08-11T18:24:23.482Z,4.72
2022-08-11T18:27:17.734Z,3.58
2022-08-11T18:33:45.151Z,3.03
2022-08-11T18:36:18.864Z,5.13
2022-08-11T18:39:12.531Z,1.42
2022-08-11T18:42:05.124Z,1.17
2022-08-11T18:44:57.246Z,9.00
2022-08-11T18:47:50.161Z,4.82
2022-08-11T18:50:50.321Z,6.70
2022-08-11T18:54:00.612Z,7.68
2022-08-11T18:56:54.069Z,3.28
2022-08-11T18:59:47.428Z,5.65
2022-08-11T19:02:48.883Z,10.65
2022-08-11T19:06:32.350Z,8.93
2022-08-11T19:08:56.074Z,7.45
2022-08-11T19:11:49.027Z,5.28
2022-08-11T19:14:44.669Z,3.15
2022-08-11T19:17:43.444Z,2.35
2022-08-11T19:20:39.576Z,6.38
2022-08-11T19:23:33.601Z,9.80
2022-08-11T19:26:26.430Z,7.15
2022-08-11T19:30:07.161Z,4.32
2022-08-11T19:32:31.204Z,3.55
2022-08-11T19:35:23.029Z,3.42
2022-08-11T19:38:14.375Z,5.63
2022-08-11T19:41:06.260Z,5.47
2022-08-11T19:43:58.027Z,2.97
2022-08-11T19:46:50.515Z,3.58
2022-08-11T19:49:43.644Z,2.33
2022-08-11T19:52:34.766Z,2.72
2022-08-11T19:55:27.209Z,1.88
2022-08-11T19:58:18.136Z,5.30
2022-08-11T20:01:08.522Z,6.75
2022-08-11T20:03:59.455Z,3.90
2022-08-11T20:06:54.374Z,6.22
2022-08-11T20:10:04.644Z,4.93
2022-08-11T20:12:57.827Z,3.70
2022-08-11T20:15:49.202Z,1.75
2022-08-11T20:18:43.034Z,3.75
2022-08-11T20:21:33.445Z,3.90
2022-08-11T20:24:26.675Z,5.75
2022-08-11T20:27:24.757Z,3.42
2022-08-11T20:30:17.452Z,2.75
2022-08-11T20:33:10.474Z,2.90
2022-08-11T20:36:01.004Z,4.13
2022-08-11T20:38:52.859Z,3.72
2022-08-11T20:41:58.687Z,1.80
2022-08-11T20:44:52.241Z,3.53
2022-08-11T20:47:58.898Z,2.30
2022-08-11T20:50:52.445Z,2.17
2022-08-11T20:53:45.233Z,4.68
2022-08-11T20:56:37.646Z,5.43
2022-08-11T20:59:33.348Z,2.53
2022-08-11T21:02:41.085Z,5.30
2022-08-11T21:06:09.490Z,2.58
2022-08-11T21:08:50.347Z,5.00
2022-08-11T21:11:41.862Z,2.92
2022-08-11T21:14:38.459Z,4.32
2022-08-11T21:17:37.744Z,4.72
2022-08-11T21:20:50.127Z,3.88
2022-08-11T21:23:42.105Z,4.68
2022-08-11T21:26:36.460Z,4.60
2022-08-11T21:29:28.749Z,5.90
2022-08-11T21:32:21.352Z,7.28
2022-08-11T21:35:12.682Z,5.22
2022-08-11T21:38:07.091Z,7.20
2022-08-11T21:41:00.040Z,6.15
2022-08-11T21:43:53.955Z,8.02
2022-08-11T21:46:45.744Z,3.63
2022-08-11T21:49:38.724Z,6.47
2022-08-11T21:52:30.316Z,3.65
2022-08-11T21:55:21.532Z,5.50
2022-08-11T21:58:13.544Z,5.13
2022-08-11T22:01:04.510Z,4.90
2022-08-11T22:03:57.194Z,4.45
2022-08-11T22:06:49.588Z,5.07
2022-08-11T22:09:40.042Z,7.03
2022-08-11T22:12:35.253Z,5.93
2022-08-11T22:15:33.797Z,5.07
2022-08-11T22:18:24.536Z,5.10
2022-08-11T22:21:18.033Z,7.47
2022-08-11T22:24:29.999Z,2.83
2022-08-11T22:27:21.345Z,6.20
2022-08-11T22:30:11.605Z,9.05
2022-08-11T22:33:03.157Z,6.47
2022-08-11T22:35:54.353Z,10.25
2022-08-11T22:38:46.153Z,6.55
2022-08-11T22:41:39.204Z,4.72
2022-08-11T22:44:30.706Z,3.53
2022-08-11T22:47:23.448Z,4.28
2022-08-11T22:50:19.810Z,3.05
2022-08-11T22:53:11.203Z,6.43
2022-08-11T22:56:02.120Z,6.45
2022-08-11T22:58:54.731Z,4.72
2022-08-11T23:01:56.176Z,7.13
2022-08-11T23:04:53.211Z,5.38
2022-08-11T23:07:51.479Z,3.95
2022-08-11T23:10:43.309Z,3.58
2022-08-11T23:13:34.282Z,6.05
2022-08-11T23:16:26.772Z,6.18
2022-08-11T23:20:07.706Z,3.78
2022-08-11T23:22:39.506Z,2.92
2022-08-11T23:25:40.068Z,6.28
2022-08-11T23:28:32.170Z,5.38
2022-08-11T23:31:23.413Z,5.90
2022-08-11T23:34:37.034Z,4.05
2022-08-11T23:37:27.814Z,2.92
2022-08-11T23:40:20.143Z,4.43
2022-08-11T23:43:12.298Z,2.63
2022-08-11T23:46:02.413Z,1.90
2022-08-11T23:48:55.760Z,7.20
2022-08-11T23:51:47.680Z,3.15
2022-08-11T23:54:38.468Z,7.20
2022-08-11T23:57:29.185Z,6.88
